createdAt,value
2022-09-09T00:01:23.419Z,2.15
2022-09-09T00:04:17.903Z,1.60
2022-09-09T00:07:05.292Z,5.07
2022-09-09T00:09:45.874Z,2.90
2022-09-09T00:12:15.130Z,2.95
2022-09-09T00:14:52.991Z,4.03
2022-09-09T00:17:27.935Z,3.97
2022-09-09T00:20:10.856Z,2.67
2022-09-09T00:22:40.409Z,3.75
2022-09-09T00:25:24.815Z,6.40
2022-09-09T00:27:52.374Z,2.45
2022-09-09T00:30:32.110Z,5.28
2022-09-09T00:33:01.741Z,3.13
2022-09-09T00:35:40.842Z,1.55
2022-09-09T00:38:26.739Z,3.00
2022-09-09T00:41:03.916Z,3.88
2022-09-09T00:43:36.957Z,3.72
2022-09-09T00:46:23.108Z,2.10
2022-09-09T00:48:58.708Z,2.13
2022-09-09T00:51:46.901Z,8.18
2022-09-09T00:54:13.987Z,3.28
2022-09-09T00:57:07.765Z,5.70
2022-09-09T00:59:54.379Z,2.72
2022-09-09T01:02:35.790Z,2.80
2022-09-09T01:05:07.131Z,3.67
2022-09-09T01:07:35.255Z,3.13
2022-09-09T01:10:11.952Z,3.03
2022-09-09T01:12:42.860Z,3.35
2022-09-09T01:15:21.844Z,4.43
2022-09-09T01:17:53.718Z,3.03
2022-09-09T01:20:30.979Z,2.60
2022-09-09T01:23:18.384Z,3.15
2022-09-09T01:25:58.894Z,2.05
2022-09-09T01:28:28.235Z,4.70
2022-09-09T01:30:55.758Z,2.90
2022-09-09T01:33:29.975Z,2.17
2022-09-09T01:36:32.725Z,4.20
2022-09-09T01:39:06.936Z,1.95
2022-09-09T01:41:34.106Z,3.45
2022-09-09T01:44:01.313Z,3.30
2022-09-09T01:46:36.027Z,3.60
2022-09-09T01:49:05.409Z,2.13
2022-09-09T01:51:32.782Z,2.35
2022-09-09T01:54:06.904Z,4.57
2022-09-09T01:56:52.560Z,4.55
2022-09-09T01:59:34.925Z,3.45
2022-09-09T02:02:25.456Z,2.60
2022-09-09T02:05:02.998Z,3.17
2022-09-09T02:07:35.525Z,6.85
2022-09-09T02:10:16.038Z,5.30
2022-09-09T02:12:45.972Z,2.65
2022-09-09T02:15:25.999Z,3.67
2022-09-09T02:17:54.161Z,2.70
2022-09-09T02:20:21.852Z,3.28
2022-09-09T02:25:37.867Z,6.55
2022-09-09T02:28:16.891Z,3.35
2022-09-09T02:30:45.898Z,4.13
2022-09-09T02:33:14.050Z,2.63
2022-09-09T02:35:48.927Z,2.53
2022-09-09T02:38:16.827Z,3.03
2022-09-09T02:40:43.931Z,3.58
2022-09-09T02:43:17.980Z,4.25
2022-09-09T02:45:57.252Z,4.38
2022-09-09T02:48:39.827Z,2.92
2022-09-09T02:51:12.358Z,5.80
2022-09-09T02:53:49.014Z,3.55
2022-09-09T02:56:21.645Z,2.00
2022-09-09T02:58:55.922Z,4.93
2022-09-09T03:01:23.277Z,2.38
2022-09-09T03:03:50.497Z,3.17
2022-09-09T03:06:25.025Z,4.05
2022-09-09T03:08:53.663Z,4.82
2022-09-09T03:11:20.906Z,4.22
2022-09-09T03:13:54.875Z,4.53
2022-09-09T03:16:22.427Z,4.45
2022-09-09T03:21:25.025Z,2.15
2022-09-09T03:24:11.692Z,3.33
2022-09-09T03:26:45.871Z,3.65
2022-09-09T03:29:16.700Z,4.82
2022-09-09T03:31:43.982Z,2.88
2022-09-09T03:34:17.894Z,4.45
2022-09-09T03:36:45.459Z,3.42
2022-09-09T03:39:12.556Z,6.20
2022-09-09T03:41:45.939Z,3.58
2022-09-09T03:44:13.411Z,2.38
2022-09-09T03:46:40.556Z,3.97
2022-09-09T03:49:14.123Z,3.05
2022-09-09T03:51:41.395Z,2.17
2022-09-09T03:54:11.104Z,3.05
2022-09-09T03:56:44.978Z,4.60
2022-09-09T03:59:12.223Z,2.20
2022-09-09T04:01:39.342Z,3.58
2022-09-09T04:04:12.937Z,3.03
2022-09-09T04:06:40.136Z,2.95
2022-09-09T04:09:07.236Z,2.00
2022-09-09T04:11:42.019Z,3.65
2022-09-09T04:14:09.935Z,5.32
2022-09-09T04:16:38.412Z,4.30
2022-09-09T04:19:13.808Z,14.60
2022-09-09T04:21:41.433Z,3.40
2022-09-09T04:26:49.114Z,7.07
2022-09-09T04:29:16.379Z,2.42
2022-09-09T04:31:43.603Z,12.40
2022-09-09T04:34:18.106Z,2.50
2022-09-09T04:36:45.350Z,4.38
2022-09-09T04:39:12.461Z,6.28
2022-09-09T04:41:45.961Z,6.10
2022-09-09T04:44:13.193Z,3.20
2022-09-09T04:46:42.211Z,3.22
2022-09-09T04:49:15.856Z,5.65
2022-09-09T04:51:43.959Z,5.03
2022-09-09T04:54:12.682Z,4.85
2022-09-09T04:56:46.955Z,3.28
2022-09-09T04:59:14.135Z,2.70
2022-09-09T05:01:41.812Z,2.95
2022-09-09T05:06:43.379Z,4.72
2022-09-09T05:09:10.607Z,3.75
2022-09-09T05:11:45.011Z,3.35
2022-09-09T05:14:13.153Z,2.53
2022-09-09T05:16:40.462Z,6.30
2022-09-09T05:19:15.970Z,3.42
2022-09-09T05:21:43.328Z,4.35
2022-09-09T05:24:24.023Z,2.70
2022-09-09T05:26:59.135Z,1.90
2022-09-09T05:29:33.003Z,3.58
2022-09-09T05:32:03.187Z,2.97
2022-09-09T05:34:30.389Z,2.50
2022-09-09T05:37:04.215Z,3.50
2022-09-09T05:39:31.492Z,1.88
2022-09-09T05:41:58.671Z,2.55
2022-09-09T05:44:36.016Z,3.70
2022-09-09T05:47:03.397Z,3.93
2022-09-09T05:49:30.647Z,5.82
2022-09-09T05:52:05.038Z,4.30
2022-09-09T05:54:33.233Z,4.13
2022-09-09T05:57:00.567Z,2.75
2022-09-09T05:59:35.000Z,7.68
2022-09-09T06:02:02.329Z,2.63
2022-09-09T06:04:29.558Z,3.35
2022-09-09T06:07:02.998Z,2.88
2022-09-09T06:09:31.433Z,2.88
2022-09-09T06:11:59.171Z,3.10
2022-09-09T06:14:35.844Z,3.90
2022-09-09T06:17:03.419Z,6.47
2022-09-09T06:22:06.055Z,3.55
2022-09-09T06:24:39.832Z,3.78
2022-09-09T06:27:20.949Z,2.50
2022-09-09T06:29:49.033Z,9.90
2022-09-09T06:32:16.151Z,3.60
2022-09-09T06:34:49.996Z,7.15
2022-09-09T06:37:17.669Z,12.32
2022-09-09T06:42:19.345Z,5.68
2022-09-09T06:44:46.667Z,6.38
2022-09-09T06:47:13.779Z,4.70
2022-09-09T06:49:48.507Z,2.30
2022-09-09T06:52:15.772Z,4.57
2022-09-09T06:54:42.860Z,4.35
2022-09-09T06:57:34.068Z,4.53
2022-09-09T07:00:03.926Z,4.55
2022-09-09T07:02:37.986Z,5.03
2022-09-09T07:05:05.531Z,4.10
2022-09-09T07:07:32.623Z,4.32
2022-09-09T07:10:05.992Z,5.75
2022-09-09T07:12:33.196Z,5.45
2022-09-09T07:15:00.367Z,2.90
2022-09-09T07:17:37.108Z,3.47
2022-09-09T07:20:05.195Z,3.28
2022-09-09T07:22:32.313Z,5.03
2022-09-09T07:25:06.165Z,4.50
2022-09-09T07:27:39.819Z,7.15
2022-09-09T07:30:20.218Z,6.18
2022-09-09T07:32:52.417Z,3.25
2022-09-09T07:35:25.990Z,4.32
2022-09-09T07:37:53.275Z,5.65
2022-09-09T07:40:22.708Z,3.22
2022-09-09T07:42:57.169Z,3.03
2022-09-09T07:45:24.822Z,8.52
2022-09-09T07:52:54.499Z,5.20
2022-09-09T07:55:22.319Z,8.20
2022-09-09T07:57:55.897Z,7.10
2022-09-09T08:00:23.213Z,9.00
2022-09-09T08:02:50.435Z,6.28
2022-09-09T08:05:24.003Z,5.70
2022-09-09T08:07:51.171Z,7.78
2022-09-09T08:10:19.047Z,5.28
2022-09-09T08:13:14.818Z,4.47
2022-09-09T08:15:40.777Z,4.07
2022-09-09T08:18:15.024Z,7.53
2022-09-09T08:20:43.065Z,4.50
2022-09-09T08:23:10.168Z,7.13
2022-09-09T08:25:43.989Z,7.78
2022-09-09T08:28:17.812Z,3.92
2022-09-09T08:30:52.072Z,6.40
2022-09-09T08:33:19.417Z,7.63
2022-09-09T08:36:01.090Z,9.60
2022-09-09T08:38:29.602Z,4.15
2022-09-09T08:41:09.217Z,5.53
2022-09-09T08:43:36.524Z,8.60
2022-09-09T08:46:05.039Z,7.25
2022-09-09T08:48:39.360Z,5.63
2022-09-09T08:51:08.260Z,8.27
2022-09-09T08:53:50.136Z,8.73
2022-09-09T08:56:19.974Z,5.68
2022-09-09T08:58:58.065Z,3.70
2022-09-09T09:01:25.334Z,4.72
2022-09-09T09:04:05.147Z,5.10
2022-09-09T09:06:37.159Z,11.63
2022-09-09T09:09:17.038Z,12.52
2022-09-09T09:11:55.066Z,4.82
2022-09-09T09:14:35.994Z,8.65
2022-09-09T09:17:14.161Z,4.47
2022-09-09T09:19:49.196Z,5.75
2022-09-09T09:22:23.501Z,4.85
2022-09-09T09:25:11.087Z,7.75
2022-09-09T09:27:42.121Z,4.97
2022-09-09T09:30:30.871Z,10.23
2022-09-09T09:35:25.269Z,4.70
2022-09-09T09:40:52.526Z,4.93
2022-09-09T09:43:33.133Z,4.18
2022-09-09T09:46:16.592Z,4.85
2022-09-09T09:48:51.047Z,12.38
2022-09-09T09:51:19.780Z,4.10
2022-09-09T09:53:47.015Z,10.95
2022-09-09T09:56:23.026Z,3.90
2022-09-09T09:58:51.804Z,7.15
2022-09-09T10:01:33.106Z,3.03
2022-09-09T10:04:04.446Z,3.72
2022-09-09T10:06:41.058Z,8.52
2022-09-09T10:09:29.543Z,6.43
2022-09-09T10:12:04.156Z,8.20
2022-09-09T10:14:41.386Z,5.57
2022-09-09T10:17:18.060Z,5.40
2022-09-09T10:19:56.167Z,4.90
2022-09-09T10:22:38.162Z,6.68
2022-09-09T10:25:45.821Z,9.60
2022-09-09T10:28:30.945Z,12.90
2022-09-09T10:31:13.104Z,7.88
2022-09-09T10:33:53.018Z,7.60
2022-09-09T10:36:20.100Z,8.70
2022-09-09T10:38:48.227Z,5.00
2022-09-09T10:41:27.065Z,8.32
2022-09-09T10:44:01.734Z,6.93
2022-09-09T10:46:55.146Z,4.95
2022-09-09T10:49:24.209Z,5.35
2022-09-09T10:52:10.096Z,5.18
2022-09-09T10:54:56.119Z,4.07
2022-09-09T10:57:36.083Z,8.65
2022-09-09T11:00:05.965Z,7.68
2022-09-09T11:02:34.128Z,11.20
2022-09-09T11:05:19.344Z,5.50
2022-09-09T11:07:53.598Z,6.47
2022-09-09T11:10:33.135Z,6.70
2022-09-09T11:13:02.888Z,7.07
2022-09-09T11:15:51.119Z,7.32
2022-09-09T11:18:25.112Z,4.30
2022-09-09T11:21:07.112Z,3.40
2022-09-09T11:23:42.755Z,6.35
2022-09-09T11:26:44.217Z,7.28
2022-09-09T11:29:12.010Z,6.35
2022-09-09T11:31:58.059Z,5.15
2022-09-09T11:34:34.586Z,5.85
2022-09-09T11:37:27.122Z,3.55
2022-09-09T11:40:03.368Z,3.83
2022-09-09T11:42:37.119Z,8.65
2022-09-09T11:45:12.216Z,8.30
2022-09-09T11:47:46.174Z,5.75
2022-09-09T11:50:16.466Z,4.68
2022-09-09T11:52:53.223Z,7.15
2022-09-09T11:55:30.578Z,9.90
2022-09-09T11:58:08.001Z,6.63
2022-09-09T12:00:38.009Z,5.97
2022-09-09T12:03:06.501Z,4.53
2022-09-09T12:05:45.124Z,8.48
2022-09-09T12:08:13.618Z,7.75
2022-09-09T12:10:41.541Z,5.53
2022-09-09T12:13:24.057Z,4.20
2022-09-09T12:15:53.045Z,6.25
2022-09-09T12:18:47.195Z,8.85
2022-09-09T12:21:20.479Z,7.82
2022-09-09T12:24:00.293Z,8.57
2022-09-09T12:26:45.525Z,8.55
2022-09-09T12:29:38.426Z,5.32
2022-09-09T12:32:05.612Z,10.10
2022-09-09T12:34:45.112Z,11.50
2022-09-09T12:37:20.282Z,4.80
2022-09-09T12:39:58.300Z,9.45
2022-09-09T12:42:25.709Z,6.93
2022-09-09T12:44:56.849Z,6.70
2022-09-09T12:47:34.115Z,5.40
2022-09-09T12:50:02.020Z,8.88
2022-09-09T12:52:44.218Z,10.15
2022-09-09T12:55:18.158Z,7.63
2022-09-09T12:57:52.108Z,9.70
2022-09-09T13:00:24.708Z,7.55
2022-09-09T13:02:51.830Z,7.03
2022-09-09T13:05:36.122Z,12.05
2022-09-09T13:08:04.490Z,7.68
2022-09-09T13:10:36.909Z,10.45
2022-09-09T13:13:31.167Z,4.47
2022-09-09T13:15:59.516Z,5.22
2022-09-09T13:18:29.254Z,8.60
2022-09-09T13:21:05.240Z,7.43
2022-09-09T13:23:33.868Z,10.35
2022-09-09T13:26:16.221Z,5.65
2022-09-09T13:28:50.468Z,7.90
2022-09-09T13:31:30.189Z,3.88
2022-09-09T13:33:58.303Z,7.15
2022-09-09T13:36:43.149Z,6.95
2022-09-09T13:39:21.615Z,5.57
2022-09-09T13:41:58.179Z,4.72
2022-09-09T13:44:30.488Z,9.88
2022-09-09T13:47:10.737Z,6.65
2022-09-09T13:49:38.430Z,6.53
2022-09-09T13:52:17.414Z,6.75
2022-09-09T13:54:44.783Z,8.38
2022-09-09T13:57:28.250Z,7.03
2022-09-09T14:00:04.957Z,4.97
2022-09-09T14:02:40.257Z,12.38
2022-09-09T14:05:07.764Z,6.22
2022-09-09T14:07:34.875Z,7.90
2022-09-09T14:10:10.106Z,5.82
2022-09-09T14:12:37.382Z,6.50
2022-09-09T14:15:05.750Z,6.40
2022-09-09T14:17:40.230Z,6.05
2022-09-09T14:20:12.753Z,7.45
2022-09-09T14:22:50.260Z,6.30
2022-09-09T14:25:24.138Z,7.53
2022-09-09T14:28:04.258Z,10.10
2022-09-09T14:30:31.599Z,10.45
2022-09-09T14:32:58.753Z,9.05
2022-09-09T14:35:32.203Z,7.13
2022-09-09T14:37:59.391Z,5.50
2022-09-09T14:40:26.541Z,7.70
2022-09-09T14:43:01.313Z,7.05
2022-09-09T14:45:28.551Z,6.32
2022-09-09T14:47:56.633Z,7.72
2022-09-09T14:50:31.340Z,9.20
2022-09-09T14:52:58.602Z,9.75
2022-09-09T14:55:25.787Z,6.95
2022-09-09T14:57:59.415Z,11.77
2022-09-09T15:02:58.914Z,13.98
2022-09-09T15:05:33.210Z,9.40
2022-09-09T15:08:00.431Z,7.68
2022-09-09T15:10:27.639Z,10.50
2022-09-09T15:13:01.289Z,7.13
2022-09-09T15:15:28.496Z,14.68
2022-09-09T15:17:55.647Z,7.88
2022-09-09T15:20:29.381Z,11.07
2022-09-09T15:22:57.368Z,10.25
2022-09-09T15:25:38.298Z,9.30
2022-09-09T15:28:11.948Z,7.53
2022-09-09T15:30:46.310Z,8.90
2022-09-09T15:33:13.504Z,6.78
2022-09-09T15:35:40.594Z,9.20
2022-09-09T15:38:14.165Z,11.20
2022-09-09T15:40:41.632Z,8.35
2022-09-09T15:43:10.466Z,8.20
2022-09-09T15:45:44.204Z,12.35
2022-09-09T15:48:12.679Z,7.55
2022-09-09T15:50:39.762Z,11.73
2022-09-09T15:53:14.426Z,7.07
2022-09-09T15:55:41.621Z,8.65
2022-09-09T15:58:08.774Z,8.00
2022-09-09T16:00:42.220Z,7.15
2022-09-09T16:03:09.487Z,11.00
2022-09-09T16:05:36.582Z,8.35
2022-09-09T16:08:11.217Z,12.43
2022-09-09T16:10:38.435Z,12.93
2022-09-09T16:13:05.529Z,10.68
2022-09-09T16:15:40.353Z,11.88
2022-09-09T16:18:07.553Z,7.65
2022-09-09T16:20:34.658Z,8.48
2022-09-09T16:23:10.323Z,14.07
2022-09-09T16:25:44.012Z,10.55
2022-09-09T16:28:25.273Z,10.48
2022-09-09T16:30:52.576Z,11.90
2022-09-09T16:33:19.833Z,9.40
2022-09-09T16:35:54.221Z,10.60
2022-09-09T16:38:21.396Z,11.52
2022-09-09T16:40:51.130Z,10.07
2022-09-09T16:43:25.180Z,8.95
2022-09-09T16:45:52.397Z,9.75
2022-09-09T16:48:19.551Z,8.27
2022-09-09T16:50:54.180Z,9.40
2022-09-09T16:53:21.387Z,9.55
2022-09-09T16:55:48.482Z,12.32
2022-09-09T16:58:22.448Z,9.82
2022-09-09T17:00:49.956Z,9.07
2022-09-09T17:03:17.373Z,9.07
2022-09-09T17:05:52.111Z,8.05
2022-09-09T17:08:19.279Z,11.65
2022-09-09T17:10:46.710Z,6.82
2022-09-09T17:13:21.246Z,14.23
2022-09-09T17:15:48.473Z,11.48
2022-09-09T17:18:17.193Z,10.18
2022-09-09T17:20:51.187Z,10.38
2022-09-09T17:23:18.812Z,12.32
2022-09-09T17:28:33.975Z,11.35
2022-09-09T17:31:13.448Z,10.93
2022-09-09T17:33:41.356Z,13.32
2022-09-09T17:36:10.722Z,11.85
2022-09-09T17:38:44.097Z,14.10
2022-09-09T17:41:14.391Z,13.07
2022-09-09T17:43:43.216Z,13.57
2022-09-09T17:46:37.332Z,13.43
2022-09-09T17:49:05.935Z,10.48
2022-09-09T17:51:33.724Z,12.82
2022-09-09T17:54:10.198Z,8.48
2022-09-09T17:56:38.166Z,13.63
2022-09-09T17:59:06.660Z,11.05
2022-09-09T18:01:42.330Z,12.07
2022-09-09T18:04:10.448Z,12.60
2022-09-09T18:06:38.901Z,12.10
2022-09-09T18:09:15.263Z,13.95
2022-09-09T18:11:46.310Z,12.10
2022-09-09T18:14:22.279Z,13.52
2022-09-09T18:16:51.069Z,13.98
2022-09-09T18:19:19.951Z,13.55
2022-09-09T18:21:56.449Z,11.27
2022-09-09T18:24:26.746Z,16.70
2022-09-09T18:27:07.187Z,18.50
2022-09-09T18:29:41.192Z,11.40
2022-09-09T18:32:15.295Z,10.70
2022-09-09T18:34:42.625Z,11.95
2022-09-09T18:37:10.625Z,14.85
2022-09-09T18:39:44.388Z,17.90
2022-09-09T18:42:12.132Z,13.25
2022-09-09T18:44:39.228Z,10.00
2022-09-09T18:47:15.246Z,10.88
2022-09-09T18:49:42.506Z,12.82
2022-09-09T18:52:12.939Z,16.67
2022-09-09T18:54:48.350Z,12.38
2022-09-09T18:57:15.554Z,14.15
2022-09-09T18:59:42.693Z,13.20
2022-09-09T19:02:19.394Z,14.30
2022-09-09T19:04:46.562Z,12.85
2022-09-09T19:07:13.795Z,15.23
2022-09-09T19:09:51.444Z,12.95
2022-09-09T19:12:18.967Z,12.80
2022-09-09T19:14:46.394Z,11.48
2022-09-09T19:17:20.215Z,13.57
2022-09-09T19:19:47.913Z,11.02
2022-09-09T19:22:15.195Z,15.65
2022-09-09T19:24:50.376Z,15.18
2022-09-09T19:27:24.393Z,12.27
2022-09-09T19:29:58.236Z,13.20
2022-09-09T19:35:19.466Z,16.30
2022-09-09T19:37:46.643Z,11.15
2022-09-09T19:40:14.111Z,12.85
2022-09-09T19:42:48.452Z,13.13
2022-09-09T19:45:15.705Z,9.77
2022-09-09T19:47:43.877Z,11.82
2022-09-09T19:50:17.348Z,9.25
2022-09-09T19:52:44.580Z,10.13
2022-09-09T19:55:11.881Z,11.05
2022-09-09T19:57:46.135Z,8.75
2022-09-09T20:00:13.687Z,10.27
2022-09-09T20:02:40.836Z,10.45
2022-09-09T20:05:15.339Z,9.98
2022-09-09T20:07:42.624Z,8.15
2022-09-09T20:10:09.934Z,6.97
2022-09-09T20:12:44.456Z,7.00
2022-09-09T20:15:12.937Z,9.45
2022-09-09T20:17:40.035Z,10.25
2022-09-09T20:20:14.355Z,7.18
2022-09-09T20:22:41.545Z,9.10
2022-09-09T20:25:08.695Z,8.98
2022-09-09T20:27:42.361Z,5.65
2022-09-09T20:30:09.692Z,7.18
2022-09-09T20:32:36.819Z,7.85
2022-09-09T20:35:11.375Z,7.85
2022-09-09T20:37:40.962Z,8.27
2022-09-09T20:40:08.449Z,6.57
2022-09-09T20:42:42.259Z,6.90
2022-09-09T20:45:16.185Z,8.13
2022-09-09T20:47:50.288Z,7.78
2022-09-09T20:50:17.553Z,10.52
2022-09-09T20:52:44.665Z,7.65
2022-09-09T20:55:18.406Z,9.73
2022-09-09T20:57:45.630Z,9.15
2022-09-09T21:00:12.948Z,9.48
2022-09-09T21:02:47.148Z,12.07
2022-09-09T21:05:14.659Z,9.80
2022-09-09T21:07:41.826Z,6.95
2022-09-09T21:10:16.301Z,8.55
2022-09-09T21:12:43.471Z,7.85
2022-09-09T21:15:10.846Z,9.32
2022-09-09T21:17:47.281Z,8.07
2022-09-09T21:20:14.468Z,8.57
2022-09-09T21:22:41.573Z,10.25
2022-09-09T21:25:28.386Z,8.68
2022-09-09T21:28:02.053Z,12.18
2022-09-09T21:30:41.876Z,10.38
2022-09-09T21:33:11.639Z,12.73
2022-09-09T21:35:48.328Z,12.30
2022-09-09T21:38:17.426Z,9.93
2022-09-09T21:40:45.197Z,13.57
2022-09-09T21:43:20.299Z,9.25
2022-09-09T21:45:47.720Z,9.10
2022-09-09T21:48:16.490Z,10.13
2022-09-09T21:50:51.293Z,14.48
2022-09-09T21:53:20.173Z,11.55
2022-09-09T21:55:48.559Z,11.13
2022-09-09T21:58:23.356Z,10.57
2022-09-09T22:00:50.607Z,7.78
2022-09-09T22:03:17.837Z,9.65
2022-09-09T22:05:54.128Z,10.68
2022-09-09T22:08:21.440Z,12.13
2022-09-09T22:10:48.671Z,8.80
2022-09-09T22:13:23.299Z,10.90
2022-09-09T22:15:51.021Z,12.68
2022-09-09T22:18:19.034Z,9.13
2022-09-09T22:20:54.161Z,11.77
2022-09-09T22:23:22.149Z,12.25
2022-09-09T22:25:50.222Z,8.45
2022-09-09T22:28:24.370Z,10.20
2022-09-09T22:30:51.633Z,8.43
2022-09-09T22:33:19.852Z,9.82
2022-09-09T22:35:53.332Z,9.85
2022-09-09T22:38:22.354Z,10.27
2022-09-09T22:40:49.577Z,7.65
2022-09-09T22:43:24.416Z,10.52
2022-09-09T22:45:51.643Z,7.95
2022-09-09T22:48:18.799Z,11.25
2022-09-09T22:50:53.380Z,10.07
2022-09-09T22:53:20.613Z,10.15
2022-09-09T22:56:07.329Z,9.05
2022-09-09T22:58:36.526Z,9.40
2022-09-09T23:01:16.422Z,9.23
2022-09-09T23:03:46.213Z,9.25
2022-09-09T23:06:28.315Z,6.95
2022-09-09T23:08:56.737Z,8.35
2022-09-09T23:11:26.054Z,9.52
2022-09-09T23:14:01.304Z,9.25
2022-09-09T23:16:38.244Z,7.53
2022-09-09T23:19:13.346Z,8.05
2022-09-09T23:21:41.961Z,8.02
2022-09-09T23:24:11.552Z,9.60
2022-09-09T23:26:45.207Z,8.45
2022-09-09T23:29:19.221Z,7.88
2022-09-09T23:31:53.308Z,8.98
2022-09-09T23:34:20.516Z,8.18
2022-09-09T23:36:47.609Z,9.65
2022-09-09T23:39:21.375Z,10.15
2022-09-09T23:41:50.411Z,11.18
2022-09-09T23:44:17.884Z,12.02
2022-09-09T23:46:51.343Z,10.30
2022-09-09T23:49:18.507Z,13.68
2022-09-09T23:51:45.646Z,9.70
2022-09-09T23:54:19.375Z,9.15
2022-09-09T23:56:46.494Z,9.80
2022-09-09T23:59:13.733Z,12.02
